Terminal Aerodrome Forecast
Issued by NWS

Home | Current Version | Previous Version | Text Only | Print | Product List | Glossary On
Versions: 1 2 3 4 5 6 7 8 9 10 11 12 13 14 15 16 17
000
FTUS46 KMTR 012142 AAA
TAFSNS
TAF AMD
KSNS 012142Z 0122/0218 29012KT P6SM VCSH OVC200
      TEMPO 0122/0202 -SHRA BKN025
     FM020500 30006KT P6SM OVC005
     FM020800 00000KT P6SM OVC005
     FM021600 VRB04KT P6SM BKN200=

USA.gov is the U.S. government's official web portal to all federal, state and local government web resources and services.